Loretto, Kentucky
Current Conditions -  °F | °C
As of 4:55 AM on Thursday 23 Oct 2014 (Local Time) from KDVK Reporting Station
Overcast Overcast  
Wind Chill: 44°   Ceiling: 2600
Heat Index: 46°   Visibility: 10mi
Dew Point: 41°   Wind: 5mph
Humidity: 81%   Direction: 50°NE
Pressure: 30.24"   Gusts: NA
Location:  37.64°N, 85.4°W
Report Text: KDVK 230855Z AUTO 05004KT 10SM OVC026 08/05 A3024 RMK AO2
Loading
Personal Weather Stations






























Interactive Weather Map
Tropical Storm Tracking
New forecast layout! Learn more

10-Day Weather Forecast

Advertisements
Track Severe Weather on mobile